Time;durP1;ratioP1;P1;durP2;ratioP2;P2;SDS_P1;SDS_P2;PMS_P1;PMS_P2;Temp;Humidity;BMP_temperature;BMP_pressure;BME280_temperature;BME280_humidity;BME280_pressure;Samples;Min_cycle;Max_cycle;Signal;HPM_P1;HPM_P2
2021/01/28 00:02:27;;;;;;;280.83;70.63;;;;;;;5.31;100.00;100803.06;10421209;28;20041;-80
2021/01/28 00:07:28;;;;;;;247.25;65.95;;;;;;;5.90;100.00;100902.28;10391470;28;20072;-81
2021/01/28 00:12:28;;;;;;;246.27;67.70;;;;;;;6.38;100.00;100942.41;10411090;28;20052;-81
2021/01/28 00:17:29;;;;;;;278.67;69.63;;;;;;;6.60;100.00;100971.59;10388161;28;20750;-81
2021/01/28 00:22:29;;;;;;;235.77;66.55;;;;;;;6.49;100.00;100948.91;10388325;28;20083;-81
2021/01/28 00:27:37;;;;;;;280.73;70.82;;;;;;;6.39;100.00;100911.72;10423967;28;20051;-81
2021/01/28 00:32:38;;;;;;;247.32;67.75;;;;;;;6.00;100.00;100835.97;10431126;28;20434;-81
2021/01/28 00:37:38;;;;;;;261.98;70.00;;;;;;;6.47;100.00;100892.09;10414148;28;20093;-81
2021/01/28 00:42:39;;;;;;;311.15;74.32;;;;;;;6.55;100.00;100900.06;10420840;28;20029;-81
2021/01/28 00:47:39;;;;;;;400.65;82.40;;;;;;;6.00;100.00;100801.06;10411599;28;20049;-80
2021/01/28 00:52:40;;;;;;;313.92;74.82;;;;;;;6.64;100.00;100907.25;10418273;28;20041;-81
2021/01/28 00:57:46;;;;;;;370.75;80.15;;;;;;;6.20;100.00;100813.66;10394230;28;20064;-80
2021/01/28 01:02:47;;;;;;;341.90;75.70;;;;;;;6.42;100.00;100825.16;10429328;28;20051;-80
2021/01/28 01:07:50;;;;;;;333.73;77.63;;;;;;;6.53;100.00;100869.28;10423104;28;20371;-81
2021/01/28 01:12:51;;;;;;;470.13;88.95;;;;;;;6.32;100.00;100837.88;10431006;28;20047;-81
2021/01/28 01:17:51;;;;;;;403.13;85.90;;;;;;;6.38;100.00;100813.50;10439337;28;20033;-81
2021/01/28 01:22:52;;;;;;;344.92;76.97;;;;;;;6.43;100.00;100826.72;10432281;28;20037;-80
2021/01/28 01:27:53;;;;;;;438.23;81.70;;;;;;;6.29;100.00;100806.31;10425207;28;20477;-81
2021/01/28 01:32:53;;;;;;;403.85;80.32;;;;;;;6.45;100.00;100816.44;10433945;28;21349;-81
2021/01/28 01:37:55;;;;;;;493.67;85.80;;;;;;;6.32;100.00;100770.75;10431463;28;20043;-80
2021/01/28 01:42:56;;;;;;;315.58;68.30;;;;;;;6.47;100.00;100757.81;10427664;28;20498;-81
2021/01/28 01:48:09;;;;;;;542.67;80.13;;;;;;;6.41;100.00;100753.78;10433795;28;20068;-80
2021/01/28 01:53:16;;;;;;;359.40;68.68;;;;;;;6.16;100.00;100704.59;10427491;28;20488;-80
2021/01/28 01:58:27;;;;;;;381.58;71.50;;;;;;;6.53;100.00;100767.22;10404101;28;20048;-81
2021/01/28 02:03:31;;;;;;;482.95;79.55;;;;;;;6.30;100.00;100716.63;10433113;28;20490;-81
2021/01/28 02:08:31;;;;;;;515.38;83.60;;;;;;;6.55;100.00;100738.13;10442299;28;20044;-80
2021/01/28 02:13:35;;;;;;;558.55;90.18;;;;;;;6.55;100.00;100716.66;10437417;28;20036;-81
2021/01/28 02:18:36;;;;;;;488.05;83.00;;;;;;;6.53;100.00;100708.13;10435543;28;20035;-80
2021/01/28 02:23:46;;;;;;;613.42;94.18;;;;;;;6.52;100.00;100701.22;10387262;28;20052;-80
2021/01/28 02:28:46;;;;;;;577.33;89.18;;;;;;;6.46;100.00;100681.06;10403807;28;20032;-80
2021/01/28 02:33:52;;;;;;;663.63;99.15;;;;;;;6.45;100.00;100668.75;10395923;28;20065;-80
2021/01/28 02:38:52;;;;;;;511.77;86.35;;;;;;;6.40;100.00;100650.97;10414105;28;20338;-81
2021/01/28 02:43:53;;;;;;;373.25;74.40;;;;;;;6.37;100.00;100635.50;10426629;28;20041;-81
2021/01/28 02:48:54;;;;;;;459.02;79.65;;;;;;;6.55;100.00;100662.94;10399675;28;20579;-81
2021/01/28 02:53:55;;;;;;;342.27;68.70;;;;;;;6.55;100.00;100681.72;10418844;28;20043;-81
2021/01/28 02:58:56;;;;;;;398.52;71.75;;;;;;;6.43;100.00;100649.50;10412876;28;20021;-81
2021/01/28 03:03:56;;;;;;;427.90;73.60;;;;;;;6.38;100.00;100614.84;10405254;28;20043;-81
2021/01/28 03:08:58;;;;;;;;;;;;;;;6.53;100.00;100643.69;10431346;28;20068;-82
2021/01/28 03:13:59;;;;;;;359.87;63.80;;;;;;;6.40;100.00;100623.31;10401699;28;20011;-82
2021/01/28 03:19:00;;;;;;;317.65;59.00;;;;;;;6.46;100.00;100621.97;10392402;28;20296;-82
2021/01/28 03:24:00;;;;;;;234.00;52.70;;;;;;;6.43;100.00;100606.56;10395247;28;20394;-81
2021/01/28 03:29:01;;;;;;;267.08;51.70;;;;;;;6.00;100.00;100530.84;10415330;28;20048;-81
2021/01/28 03:34:02;;;;;;;212.10;46.85;;;;;;;5.22;100.00;100411.06;10409560;28;20051;-81
2021/01/28 03:39:04;;;;;;;202.88;40.40;;;;;;;6.29;100.00;100564.72;10430610;28;20037;-81
2021/01/28 03:44:04;;;;;;;154.55;37.03;;;;;;;6.31;100.00;100562.47;10422021;28;20114;-81
2021/01/28 03:49:05;;;;;;;180.48;36.65;;;;;;;6.36;100.00;100564.16;10413321;28;20093;-81
2021/01/28 03:54:08;;;;;;;135.38;32.03;;;;;;;6.38;100.00;100571.88;10452279;28;20171;-81
2021/01/28 03:59:08;;;;;;;137.43;32.35;;;;;;;6.37;100.00;100551.50;10467984;28;20124;-80
2021/01/28 04:04:09;;;;;;;134.93;30.23;;;;;;;5.99;100.00;100480.19;10471737;28;20040;-80
2021/01/28 04:09:10;;;;;;;113.18;27.02;;;;;;;6.38;100.00;100515.50;10450047;28;20603;-80
2021/01/28 04:14:10;;;;;;;97.00;24.23;;;;;;;5.90;100.00;100440.84;10456111;28;20059;-81
2021/01/28 04:19:11;;;;;;;112.35;25.92;;;;;;;5.99;100.00;100431.91;10457978;28;20056;-81
2021/01/28 04:24:11;;;;;;;67.40;19.85;;;;;;;6.31;100.00;100455.09;10433385;28;20159;-82
2021/01/28 04:29:12;;;;;;;75.63;19.58;;;;;;;6.18;100.00;100450.88;10448258;28;20044;-81
2021/01/28 04:34:15;;;;;;;72.13;20.35;;;;;;;6.29;100.00;100430.50;10464362;28;20036;-82
2021/01/28 04:39:16;;;;;;;79.07;19.77;;;;;;;5.41;100.00;100304.13;10444095;28;20500;-82
2021/01/28 04:44:16;;;;;;;72.32;19.42;;;;;;;5.88;100.00;100361.81;10438336;28;20039;-82
2021/01/28 04:49:21;;;;;;;59.00;17.45;;;;;;;6.17;100.00;100384.91;10449847;28;20516;-81
2021/01/28 04:54:35;;;;;;;58.47;17.08;;;;;;;6.20;100.00;100373.47;10437119;28;20041;-81
2021/01/28 04:59:48;;;;;;;47.25;16.05;;;;;;;6.19;100.00;100361.19;10452314;28;20032;-82
2021/01/28 05:04:52;;;;;;;48.40;14.60;;;;;;;5.65;100.00;100246.22;10466793;28;20131;-80
2021/01/28 05:10:16;;;;;;;61.50;17.42;;;;;;;5.65;100.00;100230.13;10440601;28;20036;-81
2021/01/28 05:15:22;;;;;;;38.88;15.10;;;;;;;6.19;100.00;100294.09;10446627;28;20048;-81
2021/01/28 05:20:24;;;;;;;55.83;17.17;;;;;;;5.96;100.00;100247.47;10448715;28;20588;-79
2021/01/28 05:25:29;;;;;;;40.65;13.95;;;;;;;6.15;100.00;100247.59;10445632;28;20127;-79
2021/01/28 05:30:41;;;;;;;35.85;11.95;;;;;;;5.70;100.00;100189.66;10471662;28;20453;-74
2021/01/28 05:35:41;;;;;;;31.63;9.95;;;;;;;6.02;100.00;100232.66;10475155;28;20036;-75
2021/01/28 05:40:56;;;;;;;28.52;9.82;;;;;;;5.59;100.00;100145.66;10476631;28;20362;-74
2021/01/28 05:46:23;;;;;;;23.20;9.98;;;;;;;6.02;100.00;100211.19;10461009;28;20132;-76
2021/01/28 05:51:24;;;;;;;29.08;10.15;;;;;;;5.08;100.00;100058.56;10418823;28;20041;-75
2021/01/28 05:56:26;;;;;;;26.90;10.35;;;;;;;5.51;100.00;100102.59;10420372;28;20041;-76
2021/01/28 06:01:36;;;;;;;22.85;8.88;;;;;;;6.01;100.00;100177.47;10416173;28;20446;-81
2021/01/28 06:06:45;;;;;;;23.25;9.05;;;;;;;5.58;100.00;100085.13;10440905;28;20140;-78
2021/01/28 06:12:13;;;;;;;23.77;10.07;;;;;;;5.88;100.00;100120.41;10421889;28;20167;-82
2021/01/28 06:17:52;;;;;;;37.83;13.80;;;;;;;5.90;100.00;100112.75;10417580;28;20033;-79
2021/01/28 06:23:13;;;;;;;36.63;13.55;;;;;;;5.76;100.00;100091.72;10303622;28;20042;-83
2021/01/28 06:28:28;;;;;;;24.40;9.85;;;;;;;5.44;100.00;100035.38;10425352;28;20122;-82
2021/01/28 06:33:45;;;;;;;25.08;10.60;;;;;;;5.90;100.00;100062.59;10440150;28;20036;-79
2021/01/28 06:38:58;;;;;;;35.50;13.52;;;;;;;5.63;100.00;100017.84;10432434;28;20036;-84
2021/01/28 06:44:03;;;;;;;21.38;9.50;;;;;;;5.59;100.00;99995.53;10432553;28;20076;-78
2021/01/28 06:49:34;;;;;;;33.30;10.48;;;;;;;5.90;100.00;100054.53;10400334;28;20196;-80
2021/01/28 06:55:02;;;;;;;28.10;10.43;;;;;;;5.88;100.00;100046.06;10401423;28;20059;-79
2021/01/28 07:00:20;;;;;;;30.15;11.40;;;;;;;5.87;100.00;100049.84;10395682;28;20056;-78
2021/01/28 07:05:46;;;;;;;37.22;12.15;;;;;;;5.84;100.00;100039.81;10430411;28;20098;-77
2021/01/28 07:10:47;;;;;;;26.40;11.27;;;;;;;5.22;100.00;99951.00;10412875;28;20393;-87
2021/01/28 07:16:03;;;;;;;32.40;10.82;;;;;;;5.82;100.00;100036.72;10430058;28;20028;-80
2021/01/28 07:21:07;;;;;;;38.30;10.82;;;;;;;5.80;100.00;100012.13;10398247;28;20041;-81
2021/01/28 07:26:19;;;;;;;21.35;9.18;;;;;;;5.66;100.00;99974.25;10414018;28;20040;-82
2021/01/28 07:31:43;;;;;;;22.13;8.38;;;;;;;5.77;100.00;99980.66;10418442;28;20041;-83
2021/01/28 07:36:49;;;;;;;14.07;6.73;;;;;;;5.55;100.00;99933.00;10425723;28;20061;-79
2021/01/28 07:41:56;;;;;;;16.67;7.00;;;;;;;5.90;100.00;99979.44;10400628;28;20046;-85
2021/01/28 07:49:06;;;;;;;;;;;;;;;;;;;;;
2021/01/28 07:54:55;;;;;;;15.20;7.35;;;;;;;4.75;100.00;99830.41;10361740;28;20306;-82
2021/01/28 08:00:20;;;;;;;15.70;7.57;;;;;;;4.95;100.00;99840.09;10387851;28;20521;-77
2021/01/28 08:06:03;;;;;;;14.32;6.30;;;;;;;4.46;100.00;99760.09;10415674;28;20048;-80
2021/01/28 08:11:18;;;;;;;11.35;5.60;;;;;;;5.81;100.00;99943.97;10413010;28;20136;-80
2021/01/28 08:16:19;;;;;;;10.27;5.07;;;;;;;5.49;100.00;99893.06;10428197;28;20029;-81
2021/01/28 08:21:27;;;;;;;11.80;5.47;;;;;;;5.87;100.00;99947.94;10420316;28;20033;-79
2021/01/28 08:26:31;;;;;;;13.38;6.18;;;;;;;5.56;100.00;99883.63;10438967;28;20037;-83
2021/01/28 08:31:36;;;;;;;12.40;6.43;;;;;;;5.80;100.00;99910.22;10419845;28;20032;-78
2021/01/28 08:36:40;;;;;;;12.48;6.75;;;;;;;5.92;100.00;99917.38;10422412;28;20047;-81
2021/01/28 08:41:42;;;;;;;16.33;8.63;;;;;;;5.35;100.00;99831.09;10439573;28;20406;-79
2021/01/28 08:47:03;;;;;;;16.23;9.32;;;;;;;5.65;100.00;99871.59;10417526;28;20055;-83
2021/01/28 08:52:12;;;;;;;22.13;9.57;;;;;;;5.96;100.00;99918.28;10428486;28;20053;-80
2021/01/28 08:57:22;;;;;;;22.77;11.65;;;;;;;5.72;100.00;99887.06;10437586;28;20033;-78
2021/01/28 09:02:25;;;;;;;25.25;12.30;;;;;;;5.83;100.00;99898.81;10430918;28;20522;-79
2021/01/28 09:07:49;;;;;;;19.88;11.68;;;;;;;5.93;100.00;99903.63;10422890;28;20045;-79
2021/01/28 09:12:49;;;;;;;22.80;11.45;;;;;;;5.99;100.00;99895.31;10437311;28;20508;-82
2021/01/28 09:18:02;;;;;;;22.80;12.63;;;;;;;5.53;100.00;99814.63;10421901;28;20052;-79
2021/01/28 09:23:12;;;;;;;20.52;12.05;;;;;;;6.02;100.00;99879.31;10435784;28;20037;-80
2021/01/28 09:28:21;;;;;;;18.95;11.45;;;;;;;5.70;100.00;99835.69;10436461;28;20060;-82
2021/01/28 09:34:31;;;;;;;;;;;;;;;;;;;;;
2021/01/28 09:40:57;;;;;;;;;;;;;;;;;;;;;
2021/01/28 09:46:34;;;;;;;18.67;11.00;;;;;;;5.14;100.00;99723.44;10368117;28;20135;-79
2021/01/28 09:51:38;;;;;;;23.75;12.27;;;;;;;5.72;100.00;99811.97;10418797;28;20509;-76
2021/01/28 09:56:39;;;;;;;24.65;12.95;;;;;;;6.06;100.00;99852.56;10409452;28;20461;-79
2021/01/28 10:01:47;;;;;;;21.33;11.02;;;;;;;6.26;100.00;99891.69;10447842;28;20037;-76
2021/01/28 10:06:48;;;;;;;18.10;10.80;;;;;;;6.06;100.00;99852.56;10442693;28;20439;-78
2021/01/28 10:11:48;;;;;;;17.23;10.75;;;;;;;6.50;100.00;99914.00;10422313;28;20504;-77
2021/01/28 10:16:48;;;;;;;20.50;11.23;;;;;;;6.12;100.00;99869.94;10423763;28;20037;-78
2021/01/28 10:21:49;;;;;;;19.33;11.45;;;;;;;6.41;100.00;99894.66;10410816;28;20032;-77
2021/01/28 10:26:49;;;;;;;25.48;13.45;;;;;;;6.26;100.00;99851.44;10448703;28;20527;-77
2021/01/28 10:31:50;;;;;;;33.25;16.90;;;;;;;6.61;100.00;99898.88;10425270;28;20037;-78
2021/01/28 10:36:53;;;;;;;29.92;15.88;;;;;;;6.29;100.00;99839.97;10420394;28;20033;-75
2021/01/28 10:41:53;;;;;;;25.38;13.57;;;;;;;6.87;100.00;99921.63;10420696;28;20076;-76
2021/01/28 10:46:54;;;;;;;19.25;11.55;;;;;;;6.60;100.00;99875.84;10424844;28;20061;-77
2021/01/28 10:51:57;;;;;;;20.10;11.02;;;;;;;6.86;100.00;99903.94;10414272;28;20033;-77
2021/01/28 10:56:57;;;;;;;16.75;10.13;;;;;;;6.97;100.00;99899.53;10432883;28;20041;-78
2021/01/28 11:01:59;;;;;;;14.00;9.13;;;;;;;6.98;100.00;99858.09;10404179;28;20064;-77
2021/01/28 11:06:59;;;;;;;12.03;8.00;;;;;;;7.40;100.00;99902.94;10431296;28;20045;-77
2021/01/28 11:12:00;;;;;;;12.63;7.50;;;;;;;7.41;100.00;99886.44;10416982;28;20441;-78
2021/01/28 11:17:01;;;;;;;15.07;9.25;;;;;;;7.48;100.00;99885.78;10426650;28;20068;-78
2021/01/28 11:22:01;;;;;;;21.10;9.98;;;;;;;7.72;100.00;99878.44;10436115;28;20511;-78
2021/01/28 11:27:02;;;;;;;17.98;9.63;;;;;;;7.86;100.00;99878.63;10408919;28;20091;-77
2021/01/28 11:32:02;;;;;;;11.00;5.65;;;;;;;7.93;100.00;99827.59;10435900;28;20042;-77
2021/01/28 11:37:03;;;;;;;9.73;4.88;;;;;;;7.93;100.00;99798.00;10433006;28;20073;-78
2021/01/28 11:42:04;;;;;;;14.65;5.03;;;;;;;8.18;100.00;99840.56;10420024;28;20049;-78
2021/01/28 11:47:04;;;;;;;19.85;3.83;;;;;;;7.99;100.00;99834.19;10408209;28;20061;-78
2021/01/28 11:52:05;;;;;;;21.20;4.93;;;;;;;8.30;100.00;99869.97;10421800;28;20088;-77
2021/01/28 11:57:10;;;;;;;19.15;5.78;;;;;;;8.43;100.00;99879.38;10391654;28;20135;-75
2021/01/28 12:02:11;;;;;;;19.40;5.63;;;;;;;8.64;100.00;99895.00;10434851;28;20608;-78
2021/01/28 12:07:28;;;;;;;17.02;4.88;;;;;;;8.31;100.00;99828.44;10380489;28;20071;-77
2021/01/28 12:13:26;;;;;;;22.17;5.78;;;;;;;8.04;100.00;99772.00;10403861;28;21816;-78
2021/01/28 12:19:18;;;;;;;24.65;5.53;;;;;;;8.98;100.00;99902.25;10409093;28;20793;-84
2021/01/28 12:24:57;;;;;;;;;;;;;;;;;;;;;
2021/01/28 12:30:47;;;;;;;22.23;4.70;;;;;;;8.28;100.00;99775.31;10385549;28;20052;-84
2021/01/28 12:36:40;;;;;;;;;;;;;;;;;;;;;
2021/01/28 12:43:07;;;;;;;;;;;;;;;;;;;;;
2021/01/28 12:54:45;;;;;;;;;;;;;;;;;;;;;
2021/01/28 13:00:10;;;;;;;21.15;4.18;;;;;;;9.66;100.00;99935.94;10443326;28;20037;-82
2021/01/28 13:05:11;;;;;;;20.53;3.07;;;;;;;9.32;100.00;99884.84;10418382;28;20032;-77
2021/01/28 13:10:12;;;;;;;24.23;3.42;;;;;;;9.51;100.00;99918.13;10423065;28;20177;-81
2021/01/28 13:15:17;;;;;;;24.25;3.40;;;;;;;9.31;100.00;99880.59;10430441;28;20045;-80
2021/01/28 13:20:19;;;;;;;18.63;3.25;;;;;;;9.31;100.00;99910.28;10417518;28;20120;-86
2021/01/28 13:25:19;;;;;;;24.17;4.13;;;;;;;9.55;100.00;99967.50;10423024;28;20076;-85
2021/01/28 13:30:22;;;;;;;29.33;4.70;;;;;;;9.49;100.00;99953.56;10435220;28;20132;-83
2021/01/28 13:35:27;;;;;;;;;;;;;;;9.55;100.00;99967.50;10432382;28;20036;-87
2021/01/28 13:40:29;;;;;;;27.27;4.35;;;;;;;9.22;100.00;99923.28;10404790;28;20052;-78
2021/01/28 13:45:32;;;;;;;25.58;4.70;;;;;;;9.49;100.00;99968.97;10452369;28;20037;-80
2021/01/28 13:50:35;;;;;;;29.42;4.50;;;;;;;9.39;100.00;99969.66;10427820;28;20454;-81
2021/01/28 13:55:35;;;;;;;23.83;5.80;;;;;;;9.45;100.00;99963.56;10417330;28;20033;-80
2021/01/28 14:00:38;;;;;;;23.30;4.95;;;;;;;9.51;100.00;99977.47;10419956;28;20405;-85
2021/01/28 14:05:43;;;;;;;22.38;3.78;;;;;;;9.45;100.00;99990.53;10392417;28;20032;-79
2021/01/28 14:10:46;;;;;;;27.73;4.47;;;;;;;8.98;100.00;99923.81;10416512;28;20036;-78
2021/01/28 14:16:22;;;;;;;28.70;4.75;;;;;;;8.92;100.00;99925.31;10395957;28;20051;-81
2021/01/28 14:21:32;;;;;;;39.70;6.68;;;;;;;8.73;100.00;99902.78;10417165;28;20397;-85
2021/01/28 14:26:58;;;;;;;36.80;5.57;;;;;;;8.85;100.00;99953.72;10401334;28;20628;-81
2021/01/28 14:31:59;;;;;;;38.70;6.20;;;;;;;9.16;100.00;100038.00;10409787;28;20126;-82
2021/01/28 14:37:10;;;;;;;25.58;4.40;;;;;;;8.48;100.00;99950.22;10426748;28;20662;-80
2021/01/28 14:42:17;;;;;;;21.73;3.65;;;;;;;8.27;100.00;99940.69;10394157;28;20041;-81
2021/01/28 14:47:19;;;;;;;19.65;3.70;;;;;;;7.96;100.00;99910.28;10399397;28;20137;-85
2021/01/28 14:52:20;;;;;;;;;;;;;;;9.08;100.00;100074.13;10409920;28;20048;-80
2021/01/28 14:57:20;;;;;;;30.13;4.38;;;;;;;8.71;100.00;100029.00;10413977;28;19925;-83
2021/01/28 15:02:21;;;;;;;33.40;5.90;;;;;;;9.00;100.00;100099.44;10414905;28;20052;-82
2021/01/28 15:07:21;;;;;;;35.85;4.82;;;;;;;8.69;100.00;100047.47;10414916;28;20037;-78
2021/01/28 15:12:22;;;;;;;39.47;6.47;;;;;;;8.95;100.00;100091.69;10406143;28;20105;-79
2021/01/28 15:17:22;;;;;;;33.58;6.40;;;;;;;9.01;100.00;100101.00;10427436;28;20029;-79
2021/01/28 15:22:23;;;;;;;35.95;6.28;;;;;;;8.93;100.00;100110.13;10412431;28;20041;-87
2021/01/28 15:27:24;;;;;;;28.17;6.00;;;;;;;8.88;100.00;100109.31;10378016;28;20124;-84
2021/01/28 15:32:24;;;;;;;25.40;4.70;;;;;;;8.33;100.00;100046.94;10424621;28;20033;-86
2021/01/28 15:37:28;;;;;;;25.50;4.80;;;;;;;8.82;100.00;100105.38;10394678;28;20029;-83
2021/01/28 15:42:28;;;;;;;24.05;4.95;;;;;;;8.66;100.00;100080.53;10413687;28;20498;-86
2021/01/28 15:47:29;;;;;;;17.80;4.20;;;;;;;8.75;100.00;100110.69;10427728;28;20061;-87
2021/01/28 15:52:29;;;;;;;18.67;3.42;;;;;;;8.53;100.00;100081.88;10430314;28;20037;-87
2021/01/28 15:57:30;;;;;;;10.82;3.22;;;;;;;8.25;100.00;100040.69;10416454;28;20089;-88
2021/01/28 16:02:30;;;;;;;21.52;5.57;;;;;;;8.35;100.00;100071.59;10428429;28;20048;-92
2021/01/28 16:07:31;;;;;;;33.05;6.47;;;;;;;8.54;100.00;100123.84;10402107;28;20048;-86
2021/01/28 16:12:31;;;;;;;39.50;8.68;;;;;;;8.56;100.00;100143.09;10367454;28;20033;-82
2021/01/28 16:17:33;;;;;;;59.55;10.82;;;;;;;8.61;100.00;100161.69;10370123;28;20037;-83
2021/01/28 16:22:35;;;;;;;63.97;10.25;;;;;;;8.21;100.00;100114.47;10415251;28;20052;-85
2021/01/28 16:27:37;;;;;;;;;;;;;;;8.59;100.00;100177.41;10403193;28;20550;-77
2021/01/28 16:32:38;;;;;;;53.27;9.80;;;;;;;8.56;100.00;100188.91;10402358;28;19923;-80
2021/01/28 16:37:42;;;;;;;58.63;9.95;;;;;;;8.27;100.00;100161.47;10428700;28;20060;-80
2021/01/28 16:42:43;;;;;;;45.85;8.70;;;;;;;8.53;100.00;100179.63;10402232;28;20044;-79
2021/01/28 16:47:48;;;;;;;70.35;10.25;;;;;;;8.43;100.00;100175.63;10369788;28;20521;-79
2021/01/28 16:52:48;;;;;;;57.08;9.30;;;;;;;8.20;100.00;100139.81;10376481;28;20052;-78
2021/01/28 16:57:49;;;;;;;53.50;9.75;;;;;;;8.52;100.00;100188.09;10391612;28;20473;-80
2021/01/28 17:02:50;;;;;;;43.00;9.38;;;;;;;8.31;100.00;100158.84;10407739;28;20045;-80
2021/01/28 17:07:53;;;;;;;50.97;9.55;;;;;;;8.30;100.00;100187.72;10413527;28;20041;-81
2021/01/28 17:12:54;;;;;;;46.00;10.15;;;;;;;8.25;100.00;100158.38;10419806;28;20126;-83
2021/01/28 17:17:55;;;;;;;47.97;9.48;;;;;;;8.33;100.00;100181.59;10405324;28;20028;-81
2021/01/28 17:22:55;;;;;;;37.72;9.40;;;;;;;7.92;100.00;100146.28;10378496;28;20033;-78
2021/01/28 17:27:56;;;;;;;31.23;8.02;;;;;;;7.96;100.00;100157.88;10430294;28;20117;-80
2021/01/28 17:32:56;;;;;;;27.92;7.85;;;;;;;8.03;100.00;100163.38;10405212;28;20037;-79
2021/01/28 17:37:57;;;;;;;29.08;7.75;;;;;;;8.24;100.00;100189.13;10429038;28;20033;-80
2021/01/28 17:42:58;;;;;;;19.75;8.38;;;;;;;8.31;100.00;100205.41;10433268;28;20351;-81
2021/01/28 17:48:01;;;;;;;19.95;7.68;;;;;;;7.88;100.00;100145.44;10410075;28;20131;-83
2021/01/28 17:53:02;;;;;;;18.20;6.30;;;;;;;8.36;100.00;100228.56;10397815;28;20485;-83
2021/01/28 17:58:03;;;;;;;17.80;6.50;;;;;;;8.30;100.00;100236.19;10415900;28;20049;-84
2021/01/28 18:03:07;;;;;;;13.40;5.30;;;;;;;8.16;100.00;100230.50;10436809;28;20041;-87
2021/01/28 18:08:07;;;;;;;21.50;6.97;;;;;;;8.26;100.00;100241.50;10415605;28;20045;-81
2021/01/28 18:13:08;;;;;;;15.35;7.22;;;;;;;8.29;100.00;100240.00;10410807;28;20038;-82
2021/01/28 18:18:09;;;;;;;16.38;7.47;;;;;;;8.36;100.00;100240.13;10429898;28;20091;-83
2021/01/28 18:23:16;;;;;;;14.80;7.05;;;;;;;8.07;100.00;100194.97;10412942;28;20095;-84
2021/01/28 18:28:20;;;;;;;20.27;8.73;;;;;;;8.25;100.00;100217.59;10418213;28;20025;-83
2021/01/28 18:33:21;;;;;;;30.67;12.52;;;;;;;8.16;100.00;100214.34;10374017;28;20036;-84
2021/01/28 18:38:21;;;;;;;33.45;12.85;;;;;;;8.41;100.00;100231.75;10407571;28;20048;-83
2021/01/28 18:43:22;;;;;;;52.72;11.73;;;;;;;8.39;100.00;100234.00;10423904;28;20091;-83
2021/01/28 18:48:23;;;;;;;59.50;10.98;;;;;;;8.37;100.00;100241.69;10425281;28;20051;-81
2021/01/28 18:53:24;;;;;;;66.00;10.80;;;;;;;8.31;100.00;100237.72;10402365;28;20052;-82
2021/01/28 18:58:24;;;;;;;73.82;12.18;;;;;;;7.88;100.00;100177.75;10416653;28;20045;-80
2021/01/28 19:03:26;;;;;;;70.35;11.48;;;;;;;8.18;100.00;100212.09;10397548;28;20461;-80
2021/01/28 19:08:29;;;;;;;71.82;11.65;;;;;;;8.08;100.00;100196.53;10425993;28;20699;-84
2021/01/28 19:13:30;;;;;;;73.93;11.85;;;;;;;7.89;100.00;100159.69;10413674;28;20036;-84
2021/01/28 19:18:31;;;;;;;83.93;13.13;;;;;;;8.27;100.00;100215.34;10398227;28;20061;-80
2021/01/28 19:23:31;;;;;;;73.28;11.77;;;;;;;8.26;100.00;100211.09;10403819;28;20428;-78
2021/01/28 19:28:32;;;;;;;64.57;10.40;;;;;;;7.97;100.00;100164.84;10426898;28;20052;-77
2021/01/28 19:33:33;;;;;;;53.65;10.98;;;;;;;8.24;100.00;100194.53;10425324;28;20060;-78
2021/01/28 19:38:34;;;;;;;65.78;12.82;;;;;;;8.00;100.00;100169.50;10405855;28;20041;-78
2021/01/28 19:43:35;;;;;;;69.32;10.70;;;;;;;8.07;100.00;100178.81;10412760;28;20037;-80
2021/01/28 19:48:35;;;;;;;64.38;10.50;;;;;;;8.12;100.00;100181.25;10392599;28;20110;-80
2021/01/28 19:53:36;;;;;;;63.40;10.45;;;;;;;7.98;100.00;100187.91;10456022;28;20128;-79
2021/01/28 19:58:37;;;;;;;66.72;10.13;;;;;;;7.64;100.00;100125.00;10447410;28;20035;-79
2021/01/28 20:03:37;;;;;;;65.72;9.95;;;;;;;7.87;100.00;100148.50;10474526;28;20040;-82
2021/01/28 20:08:38;;;;;;;64.25;10.50;;;;;;;7.83;100.00;100143.81;10456098;28;20086;-82
2021/01/28 20:13:38;;;;;;;66.00;11.88;;;;;;;7.80;100.00;100133.00;10459127;28;20080;-82
2021/01/28 20:18:39;;;;;;;85.80;12.35;;;;;;;7.89;100.00;100157.75;10451078;28;20036;-80
2021/01/28 20:23:39;;;;;;;69.80;11.90;;;;;;;7.85;100.00;100167.66;10465525;28;20036;-82
2021/01/28 20:28:40;;;;;;;70.57;11.77;;;;;;;7.52;100.00;100123.25;10440398;28;20142;-82
2021/01/28 20:33:40;;;;;;;85.55;12.68;;;;;;;7.53;100.00;100135.59;10468059;28;20082;-81
2021/01/28 20:38:41;;;;;;;77.43;12.68;;;;;;;7.19;100.00;100089.59;10449907;28;20033;-85
2021/01/28 20:43:42;;;;;;;76.25;14.35;;;;;;;7.55;100.00;100121.75;10454518;28;20504;-81
2021/01/28 20:48:42;;;;;;;82.57;15.45;;;;;;;7.55;100.00;100138.69;10441393;28;20053;-81
2021/01/28 20:53:42;;;;;;;70.60;20.95;;;;;;;7.53;100.00;100132.91;10370182;28;20049;-81
2021/01/28 20:58:43;;;;;;;81.80;22.63;;;;;;;7.68;100.00;100138.53;10439305;28;20044;-81
2021/01/28 21:03:44;;;;;;;76.60;22.83;;;;;;;7.78;100.00;100135.25;10425358;28;20445;-82
2021/01/28 21:08:45;;;;;;;87.32;25.20;;;;;;;7.84;100.00;100139.22;10409362;28;20048;-82
2021/01/28 21:13:46;;;;;;;93.13;25.45;;;;;;;7.85;100.00;100113.84;10431524;28;20044;-84
2021/01/28 21:18:46;;;;;;;83.65;25.10;;;;;;;7.72;100.00;100072.13;10417547;28;20057;-83
2021/01/28 21:23:49;;;;;;;69.65;25.13;;;;;;;7.96;100.00;100093.28;10405173;28;20399;-83
2021/01/28 21:28:50;;;;;;;75.30;24.08;;;;;;;7.41;100.00;100014.75;10396867;28;20049;-84
2021/01/28 21:33:51;;;;;;;95.85;28.73;;;;;;;7.85;100.00;100043.91;10424900;28;20825;-84
2021/01/28 21:38:51;;;;;;;93.05;26.73;;;;;;;8.17;100.00;100065.16;10433509;28;20024;-84
2021/01/28 21:43:52;;;;;;;88.82;26.75;;;;;;;8.15;100.00;100045.91;10423392;28;20557;-85
2021/01/28 21:48:52;;;;;;;79.13;26.65;;;;;;;8.20;100.00;100042.91;10411964;28;20096;-84
2021/01/28 21:53:53;;;;;;;81.55;25.10;;;;;;;8.35;100.00;100039.28;10414432;28;20049;-84
2021/01/28 21:58:53;;;;;;;72.38;24.02;;;;;;;8.26;100.00;100009.16;10427327;28;20688;-84
2021/01/28 22:03:54;;;;;;;83.80;24.45;;;;;;;8.31;100.00;100011.53;10430456;28;20037;-85
2021/01/28 22:08:54;;;;;;;83.30;28.08;;;;;;;8.35;100.00;99993.50;10408387;28;20044;-84
2021/01/28 22:13:55;;;;;;;85.60;25.00;;;;;;;8.42;100.00;99990.94;10425809;28;20041;-84
2021/01/28 22:18:55;;;;;;;72.25;26.05;;;;;;;8.13;100.00;99937.81;10418030;28;20048;-84
2021/01/28 22:23:56;;;;;;;98.90;31.88;;;;;;;8.56;100.00;99990.34;10399158;28;20485;-84
2021/01/28 22:28:56;;;;;;;102.53;34.97;;;;;;;8.22;100.00;99924.84;10427865;28;20048;-84
2021/01/28 22:33:57;;;;;;;99.55;32.80;;;;;;;8.44;100.00;99929.41;10430582;28;20048;-82
2021/01/28 22:38:58;;;;;;;91.10;31.45;;;;;;;8.72;100.00;99965.88;10445924;28;20028;-83
2021/01/28 22:43:58;;;;;;;94.68;32.25;;;;;;;8.51;100.00;99906.38;10427179;28;20061;-82
2021/01/28 22:48:59;;;;;;;88.55;30.70;;;;;;;8.56;100.00;99897.97;10422147;28;20053;-83
2021/01/28 22:53:59;;;;;;;87.43;30.65;;;;;;;8.82;100.00;99922.13;10421568;28;20037;-83
2021/01/28 22:59:00;;;;;;;74.45;29.27;;;;;;;8.92;100.00;99909.13;10414317;28;20029;-84
2021/01/28 23:04:00;;;;;;;93.18;31.60;;;;;;;8.94;100.00;99898.75;10425883;28;20049;-82
2021/01/28 23:09:01;;;;;;;97.28;31.30;;;;;;;8.71;100.00;99851.19;10432720;28;20045;-82
2021/01/28 23:14:02;;;;;;;87.75;30.48;;;;;;;8.63;100.00;99828.78;10432170;28;20044;-81
2021/01/28 23:19:03;;;;;;;81.63;28.83;;;;;;;9.06;100.00;99871.53;10414746;28;20040;-81
2021/01/28 23:24:04;;;;;;;84.78;32.53;;;;;;;8.79;100.00;99809.66;10407576;28;20048;-81
2021/01/28 23:29:05;;;;;;;87.55;29.80;;;;;;;9.05;100.00;99859.19;10424121;28;20044;-81
2021/01/28 23:34:06;;;;;;;83.13;29.15;;;;;;;8.67;100.00;99769.53;10395694;28;20674;-80